Maimiti — PBIJ — position and weather

sailwx.info

Track history (hours):
 
Tides and Currents Weather Stations Pressure Air Temp Water Temp Dewpoint Dewpoint Depression Visibility Wind Speed Wind Dir Waves Ship Positions

Maimiti

Last reported at 2014-Dec-29 05:33 UTC. Time now 2014-Dec-29 05:59 UTC.
Position N 54°26' E 010°13'.

Length 89 m; draft 4.7 m.

Type: Cargo ship. MMSI: 244312000.

Date/timePositionNaut miles runAvg speedWind from/ knotsBaromVisibWave heightAir tempDewpointWater temp
2014-Dec-29 05:33N 54°26' E 010°13'1610.8
2014-Dec-29 04:04N 54°34' E 010°36'1912.3
2014-Dec-29 02:33N 54°36' E 011°08'1312.6
2014-Dec-29 01:33N 54°33' E 011°29'1211.8
2014-Dec-29 00:33N 54°30' E 011°49'1211.8
2014-Dec-28 23:33N 54°31' E 012°09'1212.0
2014-Dec-28 22:33N 54°36' E 012°28'1212.0
2014-Dec-28 21:33N 54°40' E 012°47'1211.6
2014-Dec-28 20:33N 54°41' E 013°07'1111.0
2014-Dec-28 19:33N 54°42' E 013°26'1111.3
2014-Dec-28 18:33N 54°42' E 013°46'14410.8
2014-Dec-28 05:17N 54°54' E 017°54'710.2
2014-Dec-28 04:33N 54°54' E 018°07'1110.6
2014-Dec-28 03:33N 54°54' E 018°26'1110.8
2014-Dec-28 02:33N 54°52' E 018°44'1110.7
2014-Dec-28 01:33N 54°50' E 019°02'1111.0
2014-Dec-28 00:33N 54°47' E 019°21'30 1.7
2014-Dec-27 07:20N 54°41' E 020°12'13 0.4
2014-Dec-26 01:23N 54°40' E 019°50'2 0.2
2014-Dec-25 16:06N 54°38' E 019°47'0 0.0
2014-Dec-25 15:06N 54°38' E 019°47'0 0.0
2014-Dec-25 13:24N 54°38' E 019°47'0 0.0
2014-Dec-25 05:30N 54°38' E 019°47'0 0.0
2014-Dec-25 00:29N 54°38' E 019°47'7 6.8
2014-Dec-24 23:31N 54°43' E 019°40'6 6.0
2014-Dec-24 22:33N 54°46' E 019°31'6 6.2
2014-Dec-24 21:33N 54°46' E 019°20'6 6.4
2014-Dec-24 20:33N 54°48' E 019°09'6 6.4
2014-Dec-24 19:33N 54°49' E 018°58'7 6.5
2014-Dec-24 18:33N 54°51' E 018°47'7 6.8
2014-Dec-24 17:33N 54°53' E 018°36'9 9.0
2014-Dec-24 16:33N 54°55' E 018°20'10112.1
2014-Dec-24 08:12N 54°51' E 015°25'812.8
2014-Dec-24 07:33N 54°53' E 015°11'1312.6
2014-Dec-24 06:33N 54°55' E 014°49'1211.9
2014-Dec-24 05:33N 54°56' E 014°28'1212.1
2014-Dec-24 04:33N 54°58' E 014°08'1211.8
2014-Dec-24 03:33N 55°02' E 013°48'1311.6
2014-Dec-24 02:24N 55°07' E 013°27'1011.9
2014-Dec-24 01:33N 55°11' E 013°10'1212.2
2014-Dec-24 00:33N 55°15' E 012°51'9 9.5
2014-Dec-23 23:33N 55°22' E 012°40'1212.2
2014-Dec-23 22:33N 55°35' E 012°42'1312.9
2014-Dec-23 21:33N 55°47' E 012°40'1212.4
2014-Dec-23 20:34N 55°60' E 012°38'2610.6
2014-Dec-23 18:04N 56°26' E 012°36'911.5
2014-Dec-23 17:16N 56°34' E 012°45'5 0.5
2014-Dec-23 05:32N 56°39' E 012°50'1111.0
2014-Dec-23 04:31N 56°33' E 012°32'123 3.2
2014-Dec-21 14:33N 55°07' E 009°56'1110.7
2014-Dec-21 13:33N 54°57' E 010°04'1210.9
2014-Dec-21 12:28N 54°45' E 010°10'1010.9
2014-Dec-21 11:33N 54°36' E 010°13'1110.6
2014-Dec-21 10:33N 54°25' E 010°13'4 4.2
2014-Dec-21 09:33N 54°22' E 010°08'4 4.2
2014-Dec-21 08:33N 54°21' E 010°01'8 7.7
2014-Dec-21 07:33N 54°22' E 009°48'10 7.9
2014-Dec-21 06:17N 54°14' E 009°36'7 8.0
2014-Dec-21 05:22N 54°10' E 009°26'4 4.8
2014-Dec-21 04:29N 54°08' E 009°20'7 7.9
2014-Dec-21 03:33N 54°00' E 009°18'4 4.5
2014-Dec-21 02:33N 53°57' E 009°14'4 4.2
2014-Dec-21 01:33N 53°54' E 009°09'1 1.4
2014-Dec-21 00:33N 53°53' E 009°07'2 1.7
2014-Dec-20 23:33N 53°53' E 009°04'1211.7
2014-Dec-20 22:33N 53°52' E 008°44'1211.6
2014-Dec-20 21:33N 53°58' E 008°28'83 9.8
2014-Dec-20 13:07N 53°42' E 006°11'5 8.8
2014-Dec-20 12:34N 53°41' E 006°03'9 8.7
2014-Dec-20 11:33N 53°38' E 005°49'9 9.1
2014-Dec-20 10:33N 53°35' E 005°34'9 9.4
2014-Dec-20 09:33N 53°32' E 005°20'10 9.5
2014-Dec-20 08:34N 53°29' E 005°04'10 9.7
2014-Dec-20 07:33N 53°25' E 004°49'49 8.1
2014-Dec-20 01:27N 52°41' E 004°11'5 5.7
2014-Dec-20 00:31N 52°37' E 004°18'5 5.6
2014-Dec-19 23:33N 52°33' E 004°24'5 5.4
2014-Dec-19 22:33N 52°29' E 004°30'4 4.1
2014-Dec-19 21:34N 52°28' E 004°36'1 1.2
2014-Dec-19 20:33N 52°28' E 004°38'0 0.1
2014-Dec-19 19:32N 52°28' E 004°38'0 0.1
2014-Dec-19 18:32N 52°28' E 004°38'0 0.0
2014-Dec-19 17:33N 52°28' E 004°38'0 0.0
2014-Dec-19 16:33N 52°28' E 004°38'0 0.0
2014-Dec-19 14:33N 52°28' E 004°38'0 0.0
2014-Dec-19 13:33N 52°28' E 004°38'0 0.1
2014-Dec-19 12:33N 52°28' E 004°38'0 0.0
2014-Dec-19 11:32N 52°28' E 004°38'0 0.0
2014-Dec-19 10:33N 52°28' E 004°38'0 0.0
2014-Dec-19 09:33N 52°28' E 004°38'0 0.0
2014-Dec-19 08:32N 52°28' E 004°38'0 0.0
2014-Dec-19 07:33N 52°28' E 004°38'0 0.0
2014-Dec-19 06:33N 52°28' E 004°38'1 1.3
2014-Dec-19 05:34N 52°28' E 004°36'  
Track history (hours):
 
Tides and Currents Weather Stations Pressure Air Temp Water Temp Dewpoint Dewpoint Depression Visibility Wind Speed Wind Dir Waves Ship Positions

Maimiti

Last reported at 2014-Dec-29 05:33 UTC. Time now 2014-Dec-29 05:59 UTC.
Position N 54°26' E 010°13'.

Length 89 m; draft 4.7 m.

Type: Cargo ship. MMSI: 244312000.

Date/timePositionNaut miles runAvg speedWind from/ knotsBaromVisibWave heightAir tempDewpointWater temp
2014-Dec-29 05:33N 54°26' E 010°13'1610.8
2014-Dec-29 04:04N 54°34' E 010°36'1912.3
2014-Dec-29 02:33N 54°36' E 011°08'1312.6
2014-Dec-29 01:33N 54°33' E 011°29'1211.8
2014-Dec-29 00:33N 54°30' E 011°49'1211.8
2014-Dec-28 23:33N 54°31' E 012°09'1212.0
2014-Dec-28 22:33N 54°36' E 012°28'1212.0
2014-Dec-28 21:33N 54°40' E 012°47'1211.6
2014-Dec-28 20:33N 54°41' E 013°07'1111.0
2014-Dec-28 19:33N 54°42' E 013°26'1111.3
2014-Dec-28 18:33N 54°42' E 013°46'14410.8
2014-Dec-28 05:17N 54°54' E 017°54'710.2
2014-Dec-28 04:33N 54°54' E 018°07'1110.6
2014-Dec-28 03:33N 54°54' E 018°26'1110.8
2014-Dec-28 02:33N 54°52' E 018°44'1110.7
2014-Dec-28 01:33N 54°50' E 019°02'1111.0
2014-Dec-28 00:33N 54°47' E 019°21'30 1.7
2014-Dec-27 07:20N 54°41' E 020°12'13 0.4
2014-Dec-26 01:23N 54°40' E 019°50'2 0.2
2014-Dec-25 16:06N 54°38' E 019°47'0 0.0
2014-Dec-25 15:06N 54°38' E 019°47'0 0.0
2014-Dec-25 13:24N 54°38' E 019°47'0 0.0
2014-Dec-25 05:30N 54°38' E 019°47'0 0.0
2014-Dec-25 00:29N 54°38' E 019°47'7 6.8
2014-Dec-24 23:31N 54°43' E 019°40'6 6.0
2014-Dec-24 22:33N 54°46' E 019°31'6 6.2
2014-Dec-24 21:33N 54°46' E 019°20'6 6.4
2014-Dec-24 20:33N 54°48' E 019°09'6 6.4
2014-Dec-24 19:33N 54°49' E 018°58'7 6.5
2014-Dec-24 18:33N 54°51' E 018°47'7 6.8
2014-Dec-24 17:33N 54°53' E 018°36'9 9.0
2014-Dec-24 16:33N 54°55' E 018°20'10112.1
2014-Dec-24 08:12N 54°51' E 015°25'812.8
2014-Dec-24 07:33N 54°53' E 015°11'1312.6
2014-Dec-24 06:33N 54°55' E 014°49'1211.9
2014-Dec-24 05:33N 54°56' E 014°28'1212.1
2014-Dec-24 04:33N 54°58' E 014°08'1211.8
2014-Dec-24 03:33N 55°02' E 013°48'1311.6
2014-Dec-24 02:24N 55°07' E 013°27'1011.9
2014-Dec-24 01:33N 55°11' E 013°10'1212.2
2014-Dec-24 00:33N 55°15' E 012°51'9 9.5
2014-Dec-23 23:33N 55°22' E 012°40'1212.2
2014-Dec-23 22:33N 55°35' E 012°42'1312.9
2014-Dec-23 21:33N 55°47' E 012°40'1212.4
2014-Dec-23 20:34N 55°60' E 012°38'2610.6
2014-Dec-23 18:04N 56°26' E 012°36'911.5
2014-Dec-23 17:16N 56°34' E 012°45'5 0.5
2014-Dec-23 05:32N 56°39' E 012°50'1111.0
2014-Dec-23 04:31N 56°33' E 012°32'123 3.2
2014-Dec-21 14:33N 55°07' E 009°56'1110.7
2014-Dec-21 13:33N 54°57' E 010°04'1210.9
2014-Dec-21 12:28N 54°45' E 010°10'1010.9
2014-Dec-21 11:33N 54°36' E 010°13'1110.6
2014-Dec-21 10:33N 54°25' E 010°13'4 4.2
2014-Dec-21 09:33N 54°22' E 010°08'4 4.2
2014-Dec-21 08:33N 54°21' E 010°01'8 7.7
2014-Dec-21 07:33N 54°22' E 009°48'10 7.9
2014-Dec-21 06:17N 54°14' E 009°36'7 8.0
2014-Dec-21 05:22N 54°10' E 009°26'4 4.8
2014-Dec-21 04:29N 54°08' E 009°20'7 7.9
2014-Dec-21 03:33N 54°00' E 009°18'4 4.5
2014-Dec-21 02:33N 53°57' E 009°14'4 4.2
2014-Dec-21 01:33N 53°54' E 009°09'1 1.4
2014-Dec-21 00:33N 53°53' E 009°07'2 1.7
2014-Dec-20 23:33N 53°53' E 009°04'1211.7
2014-Dec-20 22:33N 53°52' E 008°44'1211.6
2014-Dec-20 21:33N 53°58' E 008°28'83 9.8
2014-Dec-20 13:07N 53°42' E 006°11'5 8.8
2014-Dec-20 12:34N 53°41' E 006°03'9 8.7
2014-Dec-20 11:33N 53°38' E 005°49'9 9.1
2014-Dec-20 10:33N 53°35' E 005°34'9 9.4
2014-Dec-20 09:33N 53°32' E 005°20'10 9.5
2014-Dec-20 08:34N 53°29' E 005°04'10 9.7
2014-Dec-20 07:33N 53°25' E 004°49'49 8.1
2014-Dec-20 01:27N 52°41' E 004°11'5 5.7
2014-Dec-20 00:31N 52°37' E 004°18'5 5.6
2014-Dec-19 23:33N 52°33' E 004°24'5 5.4
2014-Dec-19 22:33N 52°29' E 004°30'4 4.1
2014-Dec-19 21:34N 52°28' E 004°36'1 1.2
2014-Dec-19 20:33N 52°28' E 004°38'0 0.1
2014-Dec-19 19:32N 52°28' E 004°38'0 0.1
2014-Dec-19 18:32N 52°28' E 004°38'0 0.0
2014-Dec-19 17:33N 52°28' E 004°38'0 0.0
2014-Dec-19 16:33N 52°28' E 004°38'0 0.0
2014-Dec-19 14:33N 52°28' E 004°38'0 0.0
2014-Dec-19 13:33N 52°28' E 004°38'0 0.1
2014-Dec-19 12:33N 52°28' E 004°38'0 0.0
2014-Dec-19 11:32N 52°28' E 004°38'0 0.0
2014-Dec-19 10:33N 52°28' E 004°38'0 0.0
2014-Dec-19 09:33N 52°28' E 004°38'0 0.0
2014-Dec-19 08:32N 52°28' E 004°38'0 0.0
2014-Dec-19 07:33N 52°28' E 004°38'0 0.0
2014-Dec-19 06:33N 52°28' E 004°38'1 1.3
2014-Dec-19 05:34N 52°28' E 004°36'  

Dump ship's entire track history